Private Wetterstation Sandau
Wetterdaten: Samstag, 17.03.2012
Datum Zeit Temp. A. Feuchte A. Luftdruck Regen Wind Richtung Richtung Taupunkt Windchill
17.03.2012 00:02 8,1 C 75 % 1018,9 hPa 0,0 l/m 0,0 km/h (0 Bft) W 270 3,9 C 8,1 C
17.03.2012 00:07 7,9 C 75 % 1018,6 hPa 0,0 l/m 0,0 km/h (0 Bft) W 270 3,7 C 7,9 C
17.03.2012 00:12 7,9 C 75 % 1018,7 hPa 0,0 l/m 1,8 km/h (1 Bft) W-SW 247 3,7 C 7,9 C
17.03.2012 00:17 7,9 C 75 % 1018,8 hPa 0,0 l/m 1,8 km/h (1 Bft) S-SO 157 3,7 C 7,9 C
17.03.2012 00:22 7,8 C 75 % 1018,6 hPa 0,0 l/m 0,0 km/h (0 Bft) S-SO 157 3,7 C 7,8 C
17.03.2012 00:27 7,6 C 76 % 1018,8 hPa 0,0 l/m 0,0 km/h (0 Bft) S-SO 157 3,6 C 7,6 C
17.03.2012 00:32 7,4 C 75 % 1018,9 hPa 0,0 l/m 3,6 km/h (1 Bft) S 180 3,3 C 7,4 C
17.03.2012 00:37 7,3 C 76 % 1018,6 hPa 0,0 l/m 0,0 km/h (0 Bft) S-SO 157 3,4 C 7,3 C
17.03.2012 00:42 7,3 C 76 % 1018,6 hPa 0,0 l/m 0,0 km/h (0 Bft) S 180 3,4 C 7,3 C
17.03.2012 00:47 7,2 C 76 % 1018,7 hPa 0,0 l/m 0,0 km/h (0 Bft) S 180 3,3 C 7,2 C
17.03.2012 00:52 7,1 C 77 % 1018,7 hPa 0,0 l/m 0,0 km/h (0 Bft) S 180 3,3 C 7,1 C
17.03.2012 00:57 7,0 C 77 % 1018,6 hPa 0,0 l/m 0,0 km/h (0 Bft) S 180 3,2 C 7,0 C
17.03.2012 01:02 6,9 C 77 % 1018,7 hPa 0,0 l/m 0,0 km/h (0 Bft) S 180 3,2 C 6,9 C
17.03.2012 01:07 6,9 C 77 % 1018,5 hPa 0,0 l/m 0,0 km/h (0 Bft) S 180 3,2 C 6,9 C
17.03.2012 01:12 6,8 C 77 % 1018,5 hPa 0,0 l/m 0,0 km/h (0 Bft) S 180 3,1 C 6,8 C
17.03.2012 01:17 6,8 C 77 % 1018,6 hPa 0,0 l/m 0,0 km/h (0 Bft) S 180 3,1 C 6,8 C
17.03.2012 01:22 6,7 C 78 % 1018,6 hPa 0,0 l/m 0,0 km/h (0 Bft) S 180 3,1 C 6,7 C
17.03.2012 01:27 6,7 C 78 % 1018,6 hPa 0,0 l/m 0,0 km/h (0 Bft) S 180 3,1 C 6,7 C
17.03.2012 01:32 6,7 C 78 % 1018,6 hPa 0,0 l/m 3,2 km/h (1 Bft) S-SO 157 3,1 C 6,7 C
17.03.2012 01:37 6,6 C 78 % 1018,5 hPa 0,0 l/m 2,2 km/h (1 Bft) S-SO 157 3,0 C 6,6 C
17.03.2012 01:42 6,6 C 78 % 1018,6 hPa 0,0 l/m 0,0 km/h (0 Bft) S-SO 157 3,0 C 6,6 C
17.03.2012 01:47 6,5 C 78 % 1018,4 hPa 0,0 l/m 0,0 km/h (0 Bft) S-SO 157 2,9 C 6,5 C
17.03.2012 01:52 6,4 C 78 % 1018,2 hPa 0,0 l/m 0,0 km/h (0 Bft) S-SO 157 2,8 C 6,4 C
17.03.2012 01:57 6,3 C 79 % 1018,2 hPa 0,0 l/m 0,0 km/h (0 Bft) S-SO 157 2,9 C 6,3 C
17.03.2012 02:02 6,2 C 79 % 1018,2 hPa 0,0 l/m 0,0 km/h (0 Bft) S-SO 157 2,8 C 6,2 C
17.03.2012 02:07 6,1 C 80 % 1018,2 hPa 0,0 l/m 0,0 km/h (0 Bft) S-SO 157 2,9 C 6,1 C
17.03.2012 02:12 6,1 C 80 % 1018,1 hPa 0,0 l/m 0,0 km/h (0 Bft) S-SO 157 2,9 C 6,1 C
17.03.2012 02:17 5,9 C 80 % 1018,0 hPa 0,0 l/m 1,4 km/h (1 Bft) S-SO 157 2,7 C 5,9 C
17.03.2012 02:22 5,9 C 80 % 1018,0 hPa 0,0 l/m 0,0 km/h (0 Bft) S-SO 157 2,7 C 5,9 C
17.03.2012 02:27 5,9 C 80 % 1018,0 hPa 0,0 l/m 0,0 km/h (0 Bft) S-SO 157 2,7 C 5,9 C
17.03.2012 02:32 5,9 C 81 % 1018,0 hPa 0,0 l/m 1,8 km/h (1 Bft) S-SO 157 2,9 C 5,9 C
17.03.2012 02:37 5,9 C 81 % 1017,9 hPa 0,0 l/m 0,0 km/h (0 Bft) S-SO 157 2,9 C 5,9 C
17.03.2012 02:42 5,9 C 81 % 1017,6 hPa 0,0 l/m 1,1 km/h (1 Bft) S-SO 157 2,9 C 5,9 C
17.03.2012 02:47 5,9 C 81 % 1017,6 hPa 0,0 l/m 1,4 km/h (1 Bft) S-SO 157 2,9 C 5,9 C
17.03.2012 02:52 5,9 C 81 % 1017,6 hPa 0,0 l/m 0,0 km/h (0 Bft) S-SO 157 2,9 C 5,9 C
17.03.2012 02:57 5,8 C 81 % 1017,7 hPa 0,0 l/m 0,0 km/h (0 Bft) S-SO 157 2,8 C 5,8 C
17.03.2012 03:02 5,8 C 81 % 1017,6 hPa 0,0 l/m 2,5 km/h (1 Bft) S-SO 157 2,8 C 5,8 C
17.03.2012 03:07 5,7 C 81 % 1017,6 hPa 0,0 l/m 0,0 km/h (0 Bft) S-SO 157 2,7 C 5,7 C
17.03.2012 03:12 5,6 C 81 % 1017,6 hPa 0,0 l/m 0,0 km/h (0 Bft) SO 135 2,6 C 5,6 C
17.03.2012 03:17 5,7 C 81 % 1017,5 hPa 0,0 l/m 0,0 km/h (0 Bft) SO 135 2,7 C 5,7 C
17.03.2012 03:22 5,6 C 81 % 1017,5 hPa 0,0 l/m 2,5 km/h (1 Bft) SO 135 2,6 C 5,6 C
17.03.2012 03:27 5,6 C 82 % 1017,5 hPa 0,0 l/m 1,1 km/h (1 Bft) SO 135 2,8 C 5,6 C
17.03.2012 03:32 5,5 C 82 % 1017,5 hPa 0,0 l/m 0,0 km/h (0 Bft) SO 135 2,7 C 5,5 C
17.03.2012 03:37 5,4 C 82 % 1017,4 hPa 0,0 l/m 0,0 km/h (0 Bft) SO 135 2,6 C 5,4 C
17.03.2012 03:42 5,4 C 82 % 1017,4 hPa 0,0 l/m 0,0 km/h (0 Bft) SO 135 2,6 C 5,4 C
17.03.2012 03:47 5,3 C 82 % 1017,2 hPa 0,0 l/m 0,0 km/h (0 Bft) SO 135 2,5 C 5,3 C
17.03.2012 03:52 5,3 C 82 % 1017,0 hPa 0,0 l/m 2,5 km/h (1 Bft) SO 135 2,5 C 5,3 C
17.03.2012 03:57 5,2 C 83 % 1016,9 hPa 0,0 l/m 2,2 km/h (1 Bft) O-SO 112 2,6 C 5,2 C
17.03.2012 04:02 5,1 C 83 % 1017,0 hPa 0,0 l/m 0,0 km/h (0 Bft) O-SO 112 2,5 C 5,1 C
17.03.2012 04:07 5,1 C 83 % 1016,9 hPa 0,0 l/m 3,2 km/h (1 Bft) O-SO 112 2,5 C 5,1 C
17.03.2012 04:12 5,0 C 83 % 1016,9 hPa 0,0 l/m 0,0 km/h (0 Bft) O-SO 112 2,4 C 5,0 C
17.03.2012 04:17 5,0 C 83 % 1016,8 hPa 0,0 l/m 2,2 km/h (1 Bft) O-SO 112 2,4 C 5,0 C
17.03.2012 04:22 5,1 C 84 % 1016,8 hPa 0,0 l/m 0,0 km/h (0 Bft) O-SO 112 2,6 C 5,1 C
17.03.2012 04:27 5,1 C 84 % 1016,8 hPa 0,0 l/m 1,4 km/h (1 Bft) SO 135 2,6 C 5,1 C
17.03.2012 04:32 5,1 C 84 % 1016,7 hPa 0,0 l/m 1,4 km/h (1 Bft) SO 135 2,6 C 5,1 C
17.03.2012 04:37 5,0 C 84 % 1016,8 hPa 0,0 l/m 0,0 km/h (0 Bft) SO 135 2,5 C 5,0 C
17.03.2012 04:42 4,9 C 84 % 1016,6 hPa 0,0 l/m 0,0 km/h (0 Bft) O-SO 112 2,4 C 4,9 C
17.03.2012 04:47 4,9 C 84 % 1016,6 hPa 0,0 l/m 0,0 km/h (0 Bft) O-SO 112 2,4 C 4,9 C
17.03.2012 04:52 4,8 C 84 % 1016,7 hPa 0,0 l/m 0,0 km/h (0 Bft) SO 135 2,3 C 4,8 C
17.03.2012 04:57 4,7 C 84 % 1016,6 hPa 0,0 l/m 0,0 km/h (0 Bft) O-SO 112 2,2 C 4,7 C
17.03.2012 05:02 4,8 C 84 % 1016,5 hPa 0,0 l/m 2,5 km/h (1 Bft) SO 135 2,3 C 4,8 C
17.03.2012 05:07 4,7 C 84 % 1016,6 hPa 0,0 l/m 0,0 km/h (0 Bft) SO 135 2,2 C 4,7 C
17.03.2012 05:12 4,8 C 84 % 1016,5 hPa 0,0 l/m 3,6 km/h (1 Bft) SO 135 2,3 C 4,8 C
17.03.2012 05:17 4,8 C 84 % 1016,5 hPa 0,0 l/m 3,2 km/h (1 Bft) SO 135 2,3 C 4,8 C
17.03.2012 05:22 4,9 C 84 % 1016,5 hPa 0,0 l/m 0,0 km/h (0 Bft) S-SO 157 2,4 C 4,9 C
17.03.2012 05:27 5,0 C 84 % 1016,4 hPa 0,0 l/m 6,8 km/h (2 Bft) S-SO 157 2,5 C 3,5 C
17.03.2012 05:32 5,1 C 84 % 1016,3 hPa 0,0 l/m 5,0 km/h (1 Bft) S-SO 157 2,6 C 4,2 C
17.03.2012 05:37 5,1 C 84 % 1016,2 hPa 0,0 l/m 6,8 km/h (2 Bft) SO 135 2,6 C 3,6 C
17.03.2012 05:42 5,1 C 83 % 1016,3 hPa 0,0 l/m 7,6 km/h (2 Bft) S-SO 157 2,5 C 3,4 C
17.03.2012 05:47 5,2 C 83 % 1016,3 hPa 0,0 l/m 6,8 km/h (2 Bft) S-SO 157 2,6 C 3,7 C
17.03.2012 05:52 5,3 C 83 % 1016,3 hPa 0,0 l/m 2,9 km/h (1 Bft) SO 135 2,7 C 5,3 C
17.03.2012 05:57 5,3 C 83 % 1016,3 hPa 0,0 l/m 5,0 km/h (1 Bft) SO 135 2,7 C 4,4 C
17.03.2012 06:02 5,4 C 83 % 1016,3 hPa 0,0 l/m 4,7 km/h (1 Bft) S-SO 157 2,7 C 4,7 C
17.03.2012 06:07 5,4 C 83 % 1016,3 hPa 0,0 l/m 7,9 km/h (2 Bft) S-SO 157 2,7 C 3,6 C
17.03.2012 06:12 5,4 C 83 % 1016,3 hPa 0,0 l/m 6,5 km/h (2 Bft) SO 135 2,7 C 4,0 C
17.03.2012 06:17 5,5 C 83 % 1016,3 hPa 0,0 l/m 2,2 km/h (1 Bft) SO 135 2,8 C 5,5 C
17.03.2012 06:22 5,6 C 82 % 1016,0 hPa 0,0 l/m 2,9 km/h (1 Bft) S-SO 157 2,8 C 5,6 C
17.03.2012 06:27 5,6 C 82 % 1016,2 hPa 0,0 l/m 5,0 km/h (1 Bft) S 180 2,8 C 4,8 C
17.03.2012 06:32 5,6 C 82 % 1016,1 hPa 0,0 l/m 7,2 km/h (2 Bft) SO 135 2,8 C 4,1 C
17.03.2012 06:37 5,6 C 82 % 1016,2 hPa 0,0 l/m 11,5 km/h (2 Bft) S-SO 157 2,8 C 3,1 C
17.03.2012 06:42 5,6 C 82 % 1016,0 hPa 0,0 l/m 2,9 km/h (1 Bft) SO 135 2,8 C 5,6 C
17.03.2012 06:47 5,7 C 82 % 1016,0 hPa 0,0 l/m 5,4 km/h (1 Bft) S-SW 202 2,9 C 4,7 C
17.03.2012 06:52 5,8 C 81 % 1016,0 hPa 0,0 l/m 4,0 km/h (1 Bft) S 180 2,8 C 5,8 C
17.03.2012 06:57 5,8 C 81 % 1016,0 hPa 0,0 l/m 1,4 km/h (1 Bft) S-SO 157 2,8 C 5,8 C
17.03.2012 07:02 5,8 C 81 % 1016,0 hPa 0,0 l/m 8,3 km/h (2 Bft) S 180 2,8 C 4,0 C
17.03.2012 07:07 5,9 C 81 % 1016,1 hPa 0,0 l/m 4,7 km/h (1 Bft) SO 135 2,9 C 5,2 C
17.03.2012 07:12 5,9 C 81 % 1016,0 hPa 0,0 l/m 1,8 km/h (1 Bft) S-SO 157 2,9 C 5,9 C
17.03.2012 07:17 6,1 C 81 % 1016,0 hPa 0,0 l/m 3,2 km/h (1 Bft) SO 135 3,1 C 6,1 C
17.03.2012 07:22 6,1 C 81 % 1016,0 hPa 0,0 l/m 2,2 km/h (1 Bft) S 180 3,1 C 6,1 C
17.03.2012 07:27 6,2 C 81 % 1015,8 hPa 0,0 l/m 13,0 km/h (3 Bft) SW 225 3,2 C 3,5 C
17.03.2012 07:32 6,3 C 81 % 1015,9 hPa 0,0 l/m 6,8 km/h (2 Bft) S-SO 157 3,3 C 5,0 C
17.03.2012 07:37 6,5 C 81 % 1016,0 hPa 0,0 l/m 5,0 km/h (1 Bft) SO 135 3,5 C 5,8 C
17.03.2012 07:42 6,6 C 80 % 1015,9 hPa 0,0 l/m 7,6 km/h (2 Bft) S-SW 202 3,4 C 5,1 C
17.03.2012 07:47 6,8 C 80 % 1015,8 hPa 0,0 l/m 7,6 km/h (2 Bft) W-SW 247 3,6 C 5,3 C
17.03.2012 07:52 6,9 C 80 % 1016,3 hPa 0,0 l/m 8,3 km/h (2 Bft) W-SW 247 3,7 C 5,3 C
17.03.2012 07:57 7,1 C 80 % 1016,0 hPa 0,0 l/m 7,2 km/h (2 Bft) SW 225 3,9 C 5,8 C
17.03.2012 08:02 7,3 C 79 % 1016,1 hPa 0,0 l/m 4,7 km/h (1 Bft) S-SO 157 3,9 C 6,8 C
17.03.2012 08:07 7,3 C 79 % 1016,2 hPa 0,0 l/m 8,3 km/h (2 Bft) S-SO 157 3,9 C 5,8 C
17.03.2012 08:12 7,5 C 79 % 1016,0 hPa 0,0 l/m 5,8 km/h (2 Bft) S-SO 157 4,1 C 6,7 C
17.03.2012 08:17 7,6 C 79 % 1016,1 hPa 0,0 l/m 4,0 km/h (1 Bft) S-SO 157 4,2 C 7,6 C
17.03.2012 08:22 7,9 C 79 % 1016,2 hPa 0,0 l/m 8,6 km/h (2 Bft) S 180 4,5 C 6,4 C
17.03.2012 08:27 8,0 C 78 % 1016,1 hPa 0,0 l/m 6,5 km/h (2 Bft) S-SO 157 4,4 C 7,0 C
17.03.2012 08:32 8,2 C 78 % 1016,2 hPa 0,0 l/m 2,9 km/h (1 Bft) S 180 4,6 C 8,2 C
17.03.2012 08:37 8,4 C 78 % 1016,2 hPa 0,0 l/m 5,4 km/h (1 Bft) SO 135 4,8 C 7,8 C
17.03.2012 08:42 8,5 C 78 % 1016,4 hPa 0,0 l/m 8,3 km/h (2 Bft) S-SW 202 4,9 C 7,2 C
17.03.2012 08:47 8,7 C 78 % 1016,5 hPa 0,0 l/m 3,2 km/h (1 Bft) S-SW 202 5,1 C 8,7 C
17.03.2012 08:52 8,9 C 77 % 1016,3 hPa 0,0 l/m 4,3 km/h (1 Bft) S 180 5,1 C 8,9 C
17.03.2012 08:57 9,1 C 77 % 1016,4 hPa 0,0 l/m 7,2 km/h (2 Bft) S-SO 157 5,3 C 8,1 C
17.03.2012 09:02 9,4 C 77 % 1016,3 hPa 0,0 l/m 5,0 km/h (1 Bft) S-SW 202 5,6 C 9,1 C
17.03.2012 09:07 9,6 C 76 % 1016,1 hPa 0,0 l/m 4,0 km/h (1 Bft) S 180 5,6 C 9,6 C
17.03.2012 09:12 9,8 C 76 % 1016,3 hPa 0,0 l/m 6,5 km/h (2 Bft) W-SW 247 5,8 C 9,1 C
17.03.2012 09:17 10,0 C 75 % 1016,3 hPa 0,0 l/m 6,8 km/h (2 Bft) S-SW 202 5,8 C 9,3 C
17.03.2012 09:22 10,2 C 75 % 1016,4 hPa 0,0 l/m 5,8 km/h (2 Bft) S-SW 202 6,0 C 10,2 C
17.03.2012 09:27 10,4 C 74 % 1016,4 hPa 0,0 l/m 4,7 km/h (1 Bft) S-SW 202 6,0 C 10,4 C
17.03.2012 09:32 10,6 C 74 % 1016,4 hPa 0,0 l/m 8,6 km/h (2 Bft) W-SW 247 6,2 C 10,6 C
17.03.2012 09:37 10,9 C 73 % 1016,6 hPa 0,0 l/m 9,4 km/h (2 Bft) S-SW 202 6,3 C 10,9 C
17.03.2012 09:42 11,1 C 73 % 1016,4 hPa 0,0 l/m 10,1 km/h (2 Bft) SW 225 6,4 C 11,1 C
17.03.2012 09:47 11,3 C 72 % 1016,4 hPa 0,0 l/m 5,8 km/h (2 Bft) W-SW 247 6,4 C 11,3 C
17.03.2012 09:52 11,6 C 71 % 1016,7 hPa 0,0 l/m 10,1 km/h (2 Bft) W-SW 247 6,5 C 11,6 C
17.03.2012 09:57 11,8 C 70 % 1016,6 hPa 0,0 l/m 9,7 km/h (2 Bft) W 270 6,5 C 11,8 C
17.03.2012 10:02 11,9 C 70 % 1016,7 hPa 0,0 l/m 8,3 km/h (2 Bft) W 270 6,6 C 11,9 C
17.03.2012 10:07 12,1 C 68 % 1016,7 hPa 0,0 l/m 18,0 km/h (3 Bft) W-NW 292 6,4 C 12,1 C
17.03.2012 10:12 12,3 C 68 % 1016,8 hPa 0,0 l/m 14,4 km/h (3 Bft) W 270 6,6 C 12,3 C
17.03.2012 10:17 12,5 C 67 % 1016,8 hPa 0,0 l/m 7,6 km/h (2 Bft) W-NW 292 6,5 C 12,5 C
17.03.2012 10:22 12,8 C 66 % 1016,9 hPa 0,0 l/m 14,8 km/h (3 Bft) W 270 6,6 C 12,8 C
17.03.2012 10:27 12,8 C 65 % 1017,1 hPa 0,0 l/m 11,2 km/h (2 Bft) NW 315 6,4 C 12,8 C
17.03.2012 10:32 12,9 C 66 % 1017,0 hPa 0,0 l/m 22,7 km/h (4 Bft) W 270 6,7 C 12,9 C
17.03.2012 10:37 13,0 C 65 % 1017,1 hPa 0,0 l/m 14,8 km/h (3 Bft) W-NW 292 6,6 C 13,0 C
17.03.2012 10:42 13,1 C 65 % 1017,2 hPa 0,0 l/m 25,6 km/h (4 Bft) W-NW 292 6,7 C 13,1 C
17.03.2012 10:47 13,2 C 65 % 1017,2 hPa 0,0 l/m 10,1 km/h (2 Bft) N-NW 337 6,8 C 13,2 C
17.03.2012 10:52 13,3 C 66 % 1017,4 hPa 0,0 l/m 8,6 km/h (2 Bft) W 270 7,1 C 13,3 C
17.03.2012 10:57 13,1 C 66 % 1017,2 hPa 0,0 l/m 23,8 km/h (4 Bft) NW 315 6,9 C 13,1 C
17.03.2012 11:02 13,0 C 66 % 1017,3 hPa 0,0 l/m 14,0 km/h (3 Bft) W 270 6,8 C 13,0 C
17.03.2012 11:07 12,9 C 67 % 1017,5 hPa 0,0 l/m 20,9 km/h (4 Bft) W 270 6,9 C 12,9 C
17.03.2012 11:12 12,9 C 68 % 1017,5 hPa 0,0 l/m 18,4 km/h (3 Bft) W-NW 292 7,1 C 12,9 C
17.03.2012 11:17 12,8 C 68 % 1017,5 hPa 0,0 l/m 4,3 km/h (1 Bft) W 270 7,0 C 12,8 C
17.03.2012 11:22 12,8 C 69 % 1017,5 hPa 0,0 l/m 13,3 km/h (3 Bft) W-SW 247 7,3 C 12,8 C
17.03.2012 11:27 12,8 C 68 % 1017,5 hPa 0,0 l/m 15,8 km/h (3 Bft) NW 315 7,0 C 12,8 C
17.03.2012 11:32 12,8 C 69 % 1017,5 hPa 0,0 l/m 11,9 km/h (2 Bft) W-NW 292 7,3 C 12,8 C
17.03.2012 11:37 12,9 C 69 % 1017,3 hPa 0,0 l/m 9,4 km/h (2 Bft) NW 315 7,4 C 12,9 C
17.03.2012 11:42 13,1 C 69 % 1017,4 hPa 0,0 l/m 12,2 km/h (2 Bft) W 270 7,5 C 13,1 C
17.03.2012 11:47 13,1 C 69 % 1017,5 hPa 0,0 l/m 8,3 km/h (2 Bft) W-NW 292 7,5 C 13,1 C
17.03.2012 11:52 13,1 C 69 % 1017,4 hPa 0,0 l/m 25,9 km/h (4 Bft) W-NW 292 7,5 C 13,1 C
17.03.2012 11:57 13,1 C 69 % 1017,4 hPa 0,0 l/m 14,8 km/h (3 Bft) NW 315 7,5 C 13,1 C
17.03.2012 12:02 13,1 C 69 % 1017,5 hPa 0,0 l/m 16,6 km/h (3 Bft) W-NW 292 7,5 C 13,1 C
17.03.2012 12:07 13,2 C 70 % 1017,6 hPa 0,0 l/m 11,2 km/h (2 Bft) W-NW 292 7,9 C 13,2 C
17.03.2012 12:12 13,3 C 69 % 1017,5 hPa 0,0 l/m 10,1 km/h (2 Bft) N-NW 337 7,7 C 13,3 C
17.03.2012 12:17 13,3 C 69 % 1017,5 hPa 0,0 l/m 13,3 km/h (3 Bft) W 270 7,7 C 13,3 C
17.03.2012 12:22 13,4 C 69 % 1017,6 hPa 0,0 l/m 14,4 km/h (3 Bft) W 270 7,8 C 13,4 C
17.03.2012 12:27 13,4 C 69 % 1017,6 hPa 0,0 l/m 8,3 km/h (2 Bft) W 270 7,8 C 13,4 C
17.03.2012 12:32 13,5 C 69 % 1017,7 hPa 0,0 l/m 6,8 km/h (2 Bft) W-NW 292 7,9 C 13,5 C
17.03.2012 12:37 13,5 C 68 % 1017,5 hPa 0,0 l/m 13,0 km/h (3 Bft) W 270 7,7 C 13,5 C
17.03.2012 12:42 13,5 C 68 % 1017,4 hPa 0,0 l/m 11,9 km/h (2 Bft) NW 315 7,7 C 13,5 C
17.03.2012 12:47 13,5 C 68 % 1017,4 hPa 0,0 l/m 9,0 km/h (2 Bft) W-SW 247 7,7 C 13,5 C
17.03.2012 12:52 13,4 C 68 % 1017,4 hPa 0,0 l/m 3,6 km/h (1 Bft) W 270 7,6 C 13,4 C
17.03.2012 12:57 13,4 C 68 % 1017,4 hPa 0,0 l/m 10,8 km/h (2 Bft) W 270 7,6 C 13,4 C
17.03.2012 13:02 13,6 C 69 % 1017,3 hPa 0,0 l/m 8,6 km/h (2 Bft) W-NW 292 8,0 C 13,6 C
17.03.2012 13:07 13,7 C 68 % 1017,2 hPa 0,0 l/m 12,2 km/h (2 Bft) NW 315 7,9 C 13,7 C
17.03.2012 13:12 13,8 C 67 % 1017,2 hPa 0,0 l/m 3,6 km/h (1 Bft) W-SW 247 7,8 C 13,8 C
17.03.2012 13:17 13,8 C 67 % 1017,2 hPa 0,0 l/m 4,0 km/h (1 Bft) NO 45 7,8 C 13,8 C
17.03.2012 13:22 13,8 C 67 % 1017,3 hPa 0,0 l/m 10,1 km/h (2 Bft) NW 315 7,8 C 13,8 C
17.03.2012 13:27 13,9 C 67 % 1017,1 hPa 0,0 l/m 2,5 km/h (1 Bft) NW 315 7,9 C 13,9 C
17.03.2012 13:32 13,9 C 67 % 1017,1 hPa 0,0 l/m 6,5 km/h (2 Bft) NW 315 7,9 C 13,9 C
17.03.2012 13:37 13,9 C 67 % 1017,0 hPa 0,0 l/m 9,4 km/h (2 Bft) NW 315 7,9 C 13,9 C
17.03.2012 13:42 14,1 C 67 % 1017,0 hPa 0,0 l/m 7,2 km/h (2 Bft) W-NW 292 8,1 C 14,1 C
17.03.2012 13:47 14,1 C 67 % 1017,1 hPa 0,0 l/m 4,3 km/h (1 Bft) NW 315 8,1 C 14,1 C
17.03.2012 13:52 14,1 C 67 % 1016,8 hPa 0,0 l/m 15,5 km/h (3 Bft) W 270 8,1 C 14,1 C
17.03.2012 13:57 14,1 C 67 % 1016,9 hPa 0,0 l/m 4,0 km/h (1 Bft) W-NW 292 8,1 C 14,1 C
17.03.2012 14:02 14,0 C 67 % 1016,8 hPa 0,0 l/m 6,5 km/h (2 Bft) W-NW 292 8,0 C 14,0 C
17.03.2012 14:07 14,0 C 67 % 1016,7 hPa 0,0 l/m 11,2 km/h (2 Bft) NW 315 8,0 C 14,0 C
17.03.2012 14:12 14,1 C 67 % 1016,8 hPa 0,0 l/m 12,6 km/h (3 Bft) W-NW 292 8,1 C 14,1 C
17.03.2012 14:17 14,1 C 66 % 1016,7 hPa 0,0 l/m 10,4 km/h (2 Bft) W-SW 247 7,8 C 14,1 C
17.03.2012 14:22 14,1 C 66 % 1016,7 hPa 0,0 l/m 11,2 km/h (2 Bft) W-NW 292 7,8 C 14,1 C
17.03.2012 14:27 14,1 C 65 % 1016,7 hPa 0,0 l/m 13,7 km/h (3 Bft) NW 315 7,6 C 14,1 C
17.03.2012 14:32 14,1 C 65 % 1016,5 hPa 0,0 l/m 7,2 km/h (2 Bft) W 270 7,6 C 14,1 C
17.03.2012 14:37 14,1 C 65 % 1016,6 hPa 0,0 l/m 6,1 km/h (2 Bft) W-NW 292 7,6 C 14,1 C
17.03.2012 14:42 14,2 C 65 % 1016,5 hPa 0,0 l/m 5,8 km/h (2 Bft) W-SW 247 7,7 C 14,2 C
17.03.2012 14:47 14,3 C 64 % 1016,4 hPa 0,0 l/m 7,6 km/h (2 Bft) W 270 7,6 C 14,3 C
17.03.2012 14:52 14,3 C 64 % 1016,3 hPa 0,0 l/m 7,2 km/h (2 Bft) W 270 7,6 C 14,3 C
17.03.2012 14:57 14,3 C 64 % 1016,3 hPa 0,0 l/m 6,1 km/h (2 Bft) W-NW 292 7,6 C 14,3 C
17.03.2012 15:02 14,4 C 64 % 1016,3 hPa 0,0 l/m 8,3 km/h (2 Bft) W 270 7,7 C 14,4 C
17.03.2012 15:07 14,4 C 64 % 1016,3 hPa 0,0 l/m 5,0 km/h (1 Bft) W-SW 247 7,7 C 14,4 C
17.03.2012 15:12 14,5 C 64 % 1016,3 hPa 0,0 l/m 7,2 km/h (2 Bft) NW 315 7,8 C 14,5 C
17.03.2012 15:17 14,5 C 64 % 1016,3 hPa 0,0 l/m 5,8 km/h (2 Bft) W-NW 292 7,8 C 14,5 C
17.03.2012 15:22 14,6 C 64 % 1016,3 hPa 0,0 l/m 3,2 km/h (1 Bft) N-NW 337 7,9 C 14,6 C
17.03.2012 15:27 14,6 C 64 % 1016,2 hPa 0,0 l/m 3,2 km/h (1 Bft) N 360 7,9 C 14,6 C
17.03.2012 15:32 14,4 C 64 % 1016,2 hPa 0,0 l/m 7,9 km/h (2 Bft) W 270 7,7 C 14,4 C
17.03.2012 15:37 14,4 C 64 % 1016,1 hPa 0,0 l/m 5,4 km/h (1 Bft) NO 45 7,7 C 14,4 C
17.03.2012 15:42 14,4 C 64 % 1016,1 hPa 0,0 l/m 3,2 km/h (1 Bft) W 270 7,7 C 14,4 C
17.03.2012 15:47 14,4 C 64 % 1015,9 hPa 0,0 l/m 6,1 km/h (2 Bft) W-NW 292 7,7 C 14,4 C
17.03.2012 15:52 14,3 C 64 % 1015,8 hPa 0,0 l/m 5,8 km/h (2 Bft) N-NW 337 7,6 C 14,3 C
17.03.2012 15:57 14,1 C 64 % 1015,9 hPa 0,0 l/m 1,4 km/h (1 Bft) W-NW 292 7,4 C 14,1 C
17.03.2012 16:02 14,0 C 65 % 1015,7 hPa 0,0 l/m 3,2 km/h (1 Bft) NW 315 7,5 C 14,0 C
17.03.2012 16:07 14,1 C 65 % 1016,0 hPa 0,0 l/m 2,9 km/h (1 Bft) N 360 7,6 C 14,1 C
17.03.2012 16:12 13,9 C 65 % 1015,8 hPa 0,0 l/m 4,0 km/h (1 Bft) N-NW 337 7,4 C 13,9 C
17.03.2012 16:17 14,0 C 65 % 1015,7 hPa 0,0 l/m 2,2 km/h (1 Bft) NW 315 7,5 C 14,0 C
17.03.2012 16:22 13,9 C 65 % 1015,8 hPa 0,0 l/m 4,0 km/h (1 Bft) O-NO 67 7,4 C 13,9 C
17.03.2012 16:27 13,8 C 65 % 1015,7 hPa 0,0 l/m 2,5 km/h (1 Bft) N-NO 22 7,3 C 13,8 C
17.03.2012 16:32 13,7 C 66 % 1015,8 hPa 0,0 l/m 4,7 km/h (1 Bft) W-NW 292 7,5 C 13,7 C
17.03.2012 16:37 13,6 C 66 % 1015,5 hPa 0,0 l/m 3,6 km/h (1 Bft) NW 315 7,4 C 13,6 C
17.03.2012 16:42 13,7 C 66 % 1015,5 hPa 0,0 l/m 6,1 km/h (2 Bft) W-NW 292 7,5 C 13,7 C
17.03.2012 16:47 13,6 C 66 % 1015,6 hPa 0,0 l/m 3,6 km/h (1 Bft) W 270 7,4 C 13,6 C
17.03.2012 16:52 13,4 C 66 % 1015,5 hPa 0,0 l/m 7,6 km/h (2 Bft) N-NO 22 7,2 C 13,4 C
17.03.2012 16:57 12,9 C 67 % 1015,6 hPa 0,0 l/m 4,0 km/h (1 Bft) NO 45 6,9 C 12,9 C
17.03.2012 17:02 12,7 C 68 % 1015,6 hPa 0,0 l/m 3,6 km/h (1 Bft) O-NO 67 6,9 C 12,7 C
17.03.2012 17:07 12,4 C 68 % 1015,4 hPa 0,0 l/m 3,2 km/h (1 Bft) NO 45 6,7 C 12,4 C
17.03.2012 17:12 12,2 C 69 % 1015,5 hPa 0,0 l/m 4,0 km/h (1 Bft) NO 45 6,7 C 12,2 C
17.03.2012 17:17 12,1 C 70 % 1015,6 hPa 0,0 l/m 1,8 km/h (1 Bft) NO 45 6,8 C 12,1 C
17.03.2012 17:22 11,9 C 70 % 1015,5 hPa 0,0 l/m 2,5 km/h (1 Bft) NO 45 6,6 C 11,9 C
17.03.2012 17:27 11,9 C 70 % 1015,6 hPa 0,0 l/m 0,0 km/h (0 Bft) NO 45 6,6 C 11,9 C
17.03.2012 17:32 11,8 C 71 % 1015,5 hPa 0,0 l/m 4,0 km/h (1 Bft) N-NO 22 6,7 C 11,8 C
17.03.2012 17:37 11,6 C 71 % 1015,3 hPa 0,0 l/m 2,5 km/h (1 Bft) NO 45 6,5 C 11,6 C
17.03.2012 17:42 11,5 C 71 % 1015,4 hPa 0,0 l/m 0,0 km/h (0 Bft) O-NO 67 6,4 C 11,5 C
17.03.2012 17:47 11,4 C 72 % 1015,5 hPa 0,0 l/m 3,6 km/h (1 Bft) NO 45 6,5 C 11,4 C
17.03.2012 17:52 11,4 C 72 % 1015,5 hPa 0,0 l/m 4,0 km/h (1 Bft) N-NO 22 6,5 C 11,4 C
17.03.2012 17:57 11,3 C 72 % 1015,5 hPa 0,0 l/m 0,0 km/h (0 Bft) O-NO 67 6,4 C 11,3 C
17.03.2012 18:02 11,2 C 72 % 1015,5 hPa 0,0 l/m 0,0 km/h (0 Bft) O-NO 67 6,3 C 11,2 C
17.03.2012 18:07 11,1 C 73 % 1015,7 hPa 0,0 l/m 0,0 km/h (0 Bft) N-NO 22 6,4 C 11,1 C
17.03.2012 18:12 11,1 C 73 % 1015,6 hPa 0,0 l/m 2,5 km/h (1 Bft) O-NO 67 6,4 C 11,1 C
17.03.2012 18:17 11,0 C 73 % 1015,7 hPa 0,0 l/m 0,0 km/h (0 Bft) O-NO 67 6,4 C 11,0 C
17.03.2012 18:22 10,9 C 73 % 1015,8 hPa 0,0 l/m 0,0 km/h (0 Bft) O-NO 67 6,3 C 10,9 C
17.03.2012 18:27 10,9 C 73 % 1015,7 hPa 0,0 l/m 3,6 km/h (1 Bft) N-NO 22 6,3 C 10,9 C
17.03.2012 18:32 10,8 C 73 % 1015,7 hPa 0,0 l/m 2,5 km/h (1 Bft) N-NO 22 6,2 C 10,8 C
17.03.2012 18:37 10,6 C 74 % 1015,6 hPa 0,0 l/m 4,0 km/h (1 Bft) NO 45 6,2 C 10,6 C
17.03.2012 18:42 10,4 C 74 % 1015,5 hPa 0,0 l/m 2,5 km/h (1 Bft) NO 45 6,0 C 10,4 C
17.03.2012 18:47 10,3 C 74 % 1015,6 hPa 0,0 l/m 3,2 km/h (1 Bft) N-NO 22 5,9 C 10,3 C
17.03.2012 18:52 10,2 C 74 % 1015,7 hPa 0,0 l/m 0,0 km/h (0 Bft) NO 45 5,8 C 10,2 C
17.03.2012 18:57 10,1 C 74 % 1015,6 hPa 0,0 l/m 1,4 km/h (1 Bft) N-NO 22 5,7 C 10,1 C
17.03.2012 19:02 10,1 C 75 % 1015,7 hPa 0,0 l/m 0,0 km/h (0 Bft) N 360 5,9 C 10,1 C
17.03.2012 19:07 10,1 C 75 % 1015,7 hPa 0,0 l/m 2,2 km/h (1 Bft) NO 45 5,9 C 10,1 C
17.03.2012 19:12 10,1 C 75 % 1015,8 hPa 0,0 l/m 0,0 km/h (0 Bft) N-NO 22 5,9 C 10,1 C
17.03.2012 19:17 10,0 C 75 % 1015,7 hPa 0,0 l/m 0,0 km/h (0 Bft) N 360 5,8 C 10,0 C
17.03.2012 19:22 10,1 C 75 % 1015,7 hPa 0,0 l/m 0,0 km/h (0 Bft) N 360 5,9 C 10,1 C
17.03.2012 19:27 10,1 C 74 % 1015,8 hPa 0,0 l/m 1,8 km/h (1 Bft) N-NW 337 5,7 C 10,1 C
17.03.2012 19:32 9,9 C 75 % 1016,0 hPa 0,0 l/m 0,0 km/h (0 Bft) W-SW 247 5,7 C 9,9 C
17.03.2012 19:37 9,9 C 75 % 1015,8 hPa 0,0 l/m 0,0 km/h (0 Bft) W-SW 247 5,7 C 9,9 C
17.03.2012 19:42 9,8 C 76 % 1016,0 hPa 0,0 l/m 0,0 km/h (0 Bft) W-NW 292 5,8 C 9,8 C
17.03.2012 19:47 9,6 C 76 % 1015,9 hPa 0,0 l/m 0,0 km/h (0 Bft) NW 315 5,6 C 9,6 C
17.03.2012 19:52 9,6 C 76 % 1016,0 hPa 0,0 l/m 0,0 km/h (0 Bft) NW 315 5,6 C 9,6 C
17.03.2012 19:57 9,6 C 76 % 1016,0 hPa 0,0 l/m 0,0 km/h (0 Bft) NW 315 5,6 C 9,6 C
17.03.2012 20:02 9,5 C 76 % 1016,0 hPa 0,0 l/m 0,0 km/h (0 Bft) NW 315 5,5 C 9,5 C
17.03.2012 20:07 9,5 C 76 % 1016,0 hPa 0,0 l/m 0,0 km/h (0 Bft) NW 315 5,5 C 9,5 C
17.03.2012 20:12 9,4 C 76 % 1016,0 hPa 0,0 l/m 0,0 km/h (0 Bft) W-NW 292 5,4 C 9,4 C
17.03.2012 20:17 9,4 C 76 % 1016,0 hPa 0,0 l/m 0,0 km/h (0 Bft) W-NW 292 5,4 C 9,4 C
17.03.2012 20:22 9,4 C 76 % 1016,0 hPa 0,0 l/m 0,0 km/h (0 Bft) W-NW 292 5,4 C 9,4 C
17.03.2012 20:27 9,3 C 76 % 1016,0 hPa 0,0 l/m 0,0 km/h (0 Bft) W-NW 292 5,3 C 9,3 C
17.03.2012 20:32 9,3 C 77 % 1016,0 hPa 0,0 l/m 0,0 km/h (0 Bft) W 270 5,5 C 9,3 C
17.03.2012 20:37 9,3 C 77 % 1016,0 hPa 0,0 l/m 0,0 km/h (0 Bft) W 270 5,5 C 9,3 C
17.03.2012 20:42 9,2 C 77 % 1016,1 hPa 0,0 l/m 0,0 km/h (0 Bft) W 270 5,4 C 9,2 C
17.03.2012 20:47 9,2 C 77 % 1016,0 hPa 0,0 l/m 0,0 km/h (0 Bft) W 270 5,4 C 9,2 C
17.03.2012 20:52 9,1 C 77 % 1015,9 hPa 0,0 l/m 0,0 km/h (0 Bft) W 270 5,3 C 9,1 C
17.03.2012 20:57 8,9 C 77 % 1015,9 hPa 0,0 l/m 2,5 km/h (1 Bft) SO 135 5,1 C 8,9 C
17.03.2012 21:02 8,8 C 77 % 1015,8 hPa 0,0 l/m 0,0 km/h (0 Bft) SO 135 5,0 C 8,8 C
17.03.2012 21:07 8,6 C 78 % 1015,8 hPa 0,0 l/m 0,0 km/h (0 Bft) SO 135 5,0 C 8,6 C
17.03.2012 21:12 8,6 C 78 % 1015,7 hPa 0,0 l/m 0,0 km/h (0 Bft) SO 135 5,0 C 8,6 C
17.03.2012 21:17 8,6 C 78 % 1015,7 hPa 0,0 l/m 0,0 km/h (0 Bft) SO 135 5,0 C 8,6 C
17.03.2012 21:22 8,5 C 78 % 1015,7 hPa 0,0 l/m 0,0 km/h (0 Bft) SO 135 4,9 C 8,5 C
17.03.2012 21:27 8,4 C 78 % 1015,7 hPa 0,0 l/m 0,0 km/h (0 Bft) SO 135 4,8 C 8,4 C
17.03.2012 21:32 8,4 C 79 % 1015,8 hPa 0,0 l/m 2,2 km/h (1 Bft) NW 315 5,0 C 8,4 C
17.03.2012 21:37 8,4 C 79 % 1015,7 hPa 0,0 l/m 0,0 km/h (0 Bft) NW 315 5,0 C 8,4 C
17.03.2012 21:42 8,2 C 79 % 1015,6 hPa 0,0 l/m 0,0 km/h (0 Bft) NW 315 4,8 C 8,2 C
17.03.2012 21:47 8,0 C 79 % 1015,7 hPa 0,0 l/m 0,0 km/h (0 Bft) NW 315 4,6 C 8,0 C
17.03.2012 21:52 7,9 C 79 % 1015,8 hPa 0,0 l/m 0,0 km/h (0 Bft) NW 315 4,5 C 7,9 C
17.03.2012 21:57 7,9 C 80 % 1015,8 hPa 0,0 l/m 0,0 km/h (0 Bft) NW 315 4,7 C 7,9 C
17.03.2012 22:02 7,8 C 80 % 1015,9 hPa 0,0 l/m 0,0 km/h (0 Bft) NW 315 4,6 C 7,8 C
17.03.2012 22:07 7,8 C 80 % 1015,7 hPa 0,0 l/m 0,0 km/h (0 Bft) NW 315 4,6 C 7,8 C
17.03.2012 22:12 7,8 C 80 % 1015,7 hPa 0,0 l/m 0,0 km/h (0 Bft) NW 315 4,6 C 7,8 C
17.03.2012 22:17 7,8 C 80 % 1015,9 hPa 0,0 l/m 0,0 km/h (0 Bft) NW 315 4,6 C 7,8 C
17.03.2012 22:22 7,6 C 80 % 1015,8 hPa 0,0 l/m 0,0 km/h (0 Bft) NW 315 4,4 C 7,6 C
17.03.2012 22:27 7,6 C 81 % 1015,8 hPa 0,0 l/m 0,0 km/h (0 Bft) NW 315 4,6 C 7,6 C
17.03.2012 22:32 7,4 C 81 % 1016,0 hPa 0,0 l/m 0,0 km/h (0 Bft) NW 315 4,4 C 7,4 C
17.03.2012 22:37 7,3 C 81 % 1015,8 hPa 0,0 l/m 0,0 km/h (0 Bft) NW 315 4,3 C 7,3 C
17.03.2012 22:42 7,3 C 81 % 1015,8 hPa 0,0 l/m 0,0 km/h (0 Bft) W-NW 292 4,3 C 7,3 C
17.03.2012 22:47 7,3 C 82 % 1016,0 hPa 0,0 l/m 0,0 km/h (0 Bft) W-SW 247 4,4 C 7,3 C
17.03.2012 22:52 7,4 C 82 % 1016,0 hPa 0,0 l/m 1,8 km/h (1 Bft) W-SW 247 4,5 C 7,4 C
17.03.2012 22:57 7,4 C 82 % 1016,1 hPa 0,0 l/m 0,0 km/h (0 Bft) W-SW 247 4,5 C 7,4 C
17.03.2012 23:02 7,5 C 82 % 1016,2 hPa 0,0 l/m 0,0 km/h (0 Bft) W-SW 247 4,6 C 7,5 C
17.03.2012 23:07 7,5 C 82 % 1015,8 hPa 0,0 l/m 0,0 km/h (0 Bft) W-SW 247 4,6 C 7,5 C
17.03.2012 23:12 7,6 C 83 % 1016,1 hPa 0,0 l/m 0,0 km/h (0 Bft) W-SW 247 4,9 C 7,6 C
17.03.2012 23:17 7,6 C 83 % 1016,2 hPa 0,0 l/m 1,4 km/h (1 Bft) W 270 4,9 C 7,6 C
17.03.2012 23:22 7,8 C 83 % 1016,1 hPa 0,0 l/m 2,2 km/h (1 Bft) W-SW 247 5,1 C 7,8 C
17.03.2012 23:27 7,8 C 83 % 1016,1 hPa 0,0 l/m 0,0 km/h (0 Bft) W-SW 247 5,1 C 7,8 C
17.03.2012 23:32 7,9 C 83 % 1016,3 hPa 0,0 l/m 0,0 km/h (0 Bft) W-SW 247 5,2 C 7,9 C
17.03.2012 23:37 7,9 C 83 % 1016,3 hPa 0,0 l/m 1,4 km/h (1 Bft) W 270 5,2 C 7,9 C
17.03.2012 23:42 7,9 C 83 % 1016,3 hPa 0,0 l/m 0,0 km/h (0 Bft) W-SW 247 5,2 C 7,9 C
17.03.2012 23:47 7,9 C 83 % 1016,4 hPa 0,0 l/m 1,8 km/h (1 Bft) W-SW 247 5,2 C 7,9 C
17.03.2012 23:52 7,9 C 83 % 1016,4 hPa 0,0 l/m 0,0 km/h (0 Bft) W 270 5,2 C 7,9 C
17.03.2012 23:57 7,9 C 83 % 1016,3 hPa 0,0 l/m 0,0 km/h (0 Bft) W 270 5,2 C 7,9 C
_ Min-Zeit 04:57 14:47 17:37 - 00:02 - - 04:57 06:37
Minimum _ 4,7 C 64 % 1015,3 hPa - 0,0 km/h (0 Bft) - - 2,2 C 3,1 C
_ Max-Zeit 15:22 04:22 00:02 00:02 11:52 - - 13:42 15:22
Maximum _ 14,6 C 84 % 1018,9 hPa 0,0 l/m 25,9 km/h
W-NW (4 Bft)
- - 8,1 C 14,6 C
Durchschnitt _ 9,5 C 75 % 1016,6 hPa #0,0 l/m 4,3 km/h (1 Bft) W - 5,2 C 9,3 C
(c) by David Heller